createdAt,value
2022-11-05T00:00:20.134Z,19.88
2022-11-05T00:03:05.661Z,20.85
2022-11-05T00:05:51.157Z,22.50
2022-11-05T00:08:36.621Z,21.58
2022-11-05T00:11:03.417Z,23.35
2022-11-05T00:13:48.621Z,23.00
2022-11-05T00:16:41.478Z,23.08
2022-11-05T00:19:08.967Z,23.45
2022-11-05T00:21:57.138Z,25.10
2022-11-05T00:24:43.491Z,24.00
2022-11-05T00:27:10.670Z,26.65
2022-11-05T00:29:37.652Z,25.13
2022-11-05T00:32:04.648Z,22.42
2022-11-05T00:34:31.925Z,21.38
2022-11-05T00:36:58.610Z,23.05
2022-11-05T00:39:25.325Z,21.58
2022-11-05T00:42:12.012Z,23.35
2022-11-05T00:44:57.358Z,23.40
2022-11-05T00:47:42.741Z,22.70
2022-11-05T00:50:11.007Z,21.90
2022-11-05T00:52:56.837Z,21.10
2022-11-05T00:55:25.093Z,20.58
2022-11-05T00:57:51.813Z,21.27
2022-11-05T01:00:18.668Z,21.13
2022-11-05T01:02:45.772Z,21.40
2022-11-05T01:05:13.559Z,20.55
2022-11-05T01:07:40.347Z,21.55
2022-11-05T01:10:07.414Z,20.63
2022-11-05T01:12:34.823Z,20.83
2022-11-05T01:15:01.876Z,22.02
2022-11-05T01:17:28.615Z,23.33
2022-11-05T01:19:55.444Z,22.48
2022-11-05T01:22:22.489Z,22.30
2022-11-05T01:24:49.177Z,20.65
2022-11-05T01:27:16.080Z,22.30
2022-11-05T01:29:42.944Z,22.33
2022-11-05T01:32:09.718Z,20.17
2022-11-05T01:34:36.517Z,21.35
2022-11-05T01:37:03.249Z,20.65
2022-11-05T01:39:29.922Z,21.30
2022-11-05T01:41:56.833Z,22.77
2022-11-05T01:44:59.380Z,21.13
2022-11-05T01:47:38.654Z,22.27
2022-11-05T01:50:30.498Z,22.60
2022-11-05T01:53:03.871Z,20.95
2022-11-05T01:55:36.866Z,23.70
2022-11-05T01:58:07.582Z,23.05
2022-11-05T02:00:35.540Z,23.40
2022-11-05T02:03:02.577Z,23.35
2022-11-05T02:05:29.580Z,22.77
2022-11-05T02:07:56.566Z,23.38
2022-11-05T02:10:24.238Z,23.20
2022-11-05T02:12:51.111Z,24.02
2022-11-05T02:15:27.442Z,21.73
2022-11-05T02:18:19.204Z,21.48
2022-11-05T02:21:07.215Z,22.63
2022-11-05T02:23:51.897Z,22.88
2022-11-05T02:26:33.793Z,21.65
2022-11-05T02:29:19.063Z,22.17
2022-11-05T02:31:54.946Z,22.15
2022-11-05T02:34:31.462Z,22.25
2022-11-05T02:37:23.867Z,21.95
2022-11-05T02:39:59.133Z,20.77
2022-11-05T02:42:57.159Z,22.98
2022-11-05T02:45:58.851Z,20.45
2022-11-05T02:48:59.181Z,20.77
2022-11-05T02:51:35.011Z,22.60
2022-11-05T02:54:16.265Z,21.35
2022-11-05T02:56:47.216Z,21.15
2022-11-05T02:59:14.233Z,21.08
2022-11-05T03:01:42.511Z,22.75
2022-11-05T03:04:12.266Z,21.92
2022-11-05T03:07:00.510Z,21.15
2022-11-05T03:09:50.652Z,20.35
2022-11-05T03:12:29.653Z,20.92
2022-11-05T03:15:17.700Z,21.85
2022-11-05T03:17:59.906Z,21.70
2022-11-05T03:20:40.663Z,20.80
2022-11-05T03:23:19.785Z,21.75
2022-11-05T03:25:54.746Z,20.95
2022-11-05T03:28:25.645Z,22.02
2022-11-05T03:30:56.862Z,22.08
2022-11-05T03:33:27.736Z,21.77
2022-11-05T03:35:57.343Z,21.27
2022-11-05T03:38:37.334Z,20.95
2022-11-05T03:41:08.614Z,21.58
2022-11-05T03:43:39.938Z,20.92
2022-11-05T03:46:11.460Z,22.13
2022-11-05T03:48:46.530Z,21.92
2022-11-05T03:51:30.407Z,20.70
2022-11-05T03:53:59.743Z,22.77
2022-11-05T03:56:34.353Z,21.60
2022-11-05T03:59:02.787Z,21.15
2022-11-05T04:01:30.584Z,21.33
2022-11-05T04:03:57.689Z,21.38
2022-11-05T04:06:42.973Z,21.15
2022-11-05T04:09:29.129Z,21.50
2022-11-05T04:12:14.619Z,21.83
2022-11-05T04:14:41.386Z,20.25
2022-11-05T04:17:09.708Z,20.27
2022-11-05T04:20:01.414Z,22.15
2022-11-05T04:22:49.017Z,21.88
2022-11-05T04:25:17.707Z,20.00
2022-11-05T04:27:45.205Z,21.88
2022-11-05T04:30:20.140Z,20.27
2022-11-05T04:33:25.339Z,21.63
2022-11-05T04:35:52.031Z,24.02
2022-11-05T04:38:19.975Z,25.92
2022-11-05T04:40:49.978Z,26.40
2022-11-05T04:43:19.266Z,24.02
2022-11-05T04:45:47.839Z,27.95
2022-11-05T04:48:14.517Z,37.10
2022-11-05T04:50:41.194Z,38.22
2022-11-05T04:53:08.141Z,34.83
2022-11-05T04:55:34.988Z,38.72
2022-11-05T04:58:01.672Z,34.45
2022-11-05T05:00:28.483Z,30.40
2022-11-05T05:02:55.202Z,27.60
2022-11-05T05:05:23.042Z,25.55
2022-11-05T05:07:50.041Z,26.15
2022-11-05T05:10:16.804Z,24.48
2022-11-05T05:12:43.492Z,25.50
2022-11-05T05:15:10.374Z,24.02
2022-11-05T05:17:37.073Z,29.15
2022-11-05T05:20:22.373Z,28.30
2022-11-05T05:22:53.998Z,24.38
2022-11-05T05:25:21.192Z,26.20
2022-11-05T05:27:47.973Z,23.92
2022-11-05T05:30:14.764Z,23.00
2022-11-05T05:32:41.515Z,21.65
2022-11-05T05:35:08.700Z,25.45
2022-11-05T05:37:35.430Z,24.48
2022-11-05T05:40:02.101Z,24.33
2022-11-05T05:42:28.815Z,21.75
2022-11-05T05:44:55.481Z,22.02
2022-11-05T05:47:24.428Z,23.98
2022-11-05T05:49:51.261Z,22.17
2022-11-05T05:52:18.311Z,21.23
2022-11-05T05:54:47.536Z,22.25
2022-11-05T05:57:14.261Z,22.45
2022-11-05T05:59:40.956Z,22.33
2022-11-05T06:02:07.834Z,23.52
2022-11-05T06:04:34.596Z,23.75
2022-11-05T06:07:01.318Z,24.00
2022-11-05T06:09:28.018Z,22.45
2022-11-05T06:11:54.798Z,22.45
2022-11-05T06:14:21.491Z,21.85
2022-11-05T06:16:48.238Z,22.88
2022-11-05T06:19:15.013Z,22.98
2022-11-05T06:21:44.598Z,23.48
2022-11-05T06:24:11.545Z,24.63
2022-11-05T06:26:43.120Z,27.33
2022-11-05T06:29:13.338Z,25.67
2022-11-05T06:34:09.365Z,25.17
2022-11-05T06:36:36.302Z,24.23
2022-11-05T06:39:03.133Z,21.20
2022-11-05T06:41:29.930Z,16.83
2022-11-05T06:43:56.650Z,18.00
2022-11-05T06:46:23.323Z,16.52
2022-11-05T06:48:51.014Z,16.95
2022-11-05T06:51:17.922Z,16.67
2022-11-05T06:53:44.633Z,15.82
2022-11-05T06:56:11.483Z,17.00
2022-11-05T06:58:38.239Z,16.73
2022-11-05T07:01:10.683Z,17.23
2022-11-05T07:03:38.712Z,16.38
2022-11-05T07:06:07.076Z,17.85
2022-11-05T07:08:37.086Z,19.77
2022-11-05T07:11:04.558Z,20.40
2022-11-05T07:13:31.589Z,20.13
2022-11-05T07:15:58.382Z,20.90
2022-11-05T07:18:25.274Z,17.08
2022-11-05T07:20:52.038Z,16.60
2022-11-05T07:23:18.726Z,18.05
2022-11-05T07:25:45.541Z,16.00
2022-11-05T07:28:14.336Z,16.48
2022-11-05T07:30:41.474Z,15.85
2022-11-05T07:33:08.816Z,16.02
2022-11-05T07:35:35.876Z,16.05
2022-11-05T07:38:02.901Z,15.48
2022-11-05T07:40:30.482Z,14.75
2022-11-05T07:42:59.369Z,16.67
2022-11-05T07:45:30.134Z,17.27
2022-11-05T07:48:01.731Z,17.65
2022-11-05T07:50:31.052Z,17.15
2022-11-05T07:53:01.921Z,16.40
2022-11-05T07:55:28.791Z,17.90
2022-11-05T07:57:55.696Z,17.35
2022-11-05T08:00:24.036Z,17.70
2022-11-05T08:02:58.621Z,18.05
2022-11-05T08:05:30.345Z,18.42
2022-11-05T08:07:58.277Z,18.40
2022-11-05T08:10:26.075Z,18.20
2022-11-05T08:12:54.072Z,19.30
2022-11-05T08:15:21.284Z,18.55
2022-11-05T08:17:48.355Z,19.60
2022-11-05T08:20:15.327Z,20.23
2022-11-05T08:22:43.615Z,19.88
2022-11-05T08:25:11.894Z,20.48
2022-11-05T08:27:39.856Z,19.90
2022-11-05T08:30:09.553Z,19.92
2022-11-05T08:32:38.469Z,21.42
2022-11-05T08:35:05.659Z,19.77
2022-11-05T08:37:32.856Z,20.65
2022-11-05T08:39:59.638Z,20.58
2022-11-05T08:42:26.379Z,20.77
2022-11-05T08:44:53.141Z,22.77
2022-11-05T08:47:19.806Z,23.00
2022-11-05T08:49:46.469Z,22.05
2022-11-05T08:52:13.229Z,22.25
2022-11-05T08:54:39.908Z,21.73
2022-11-05T08:57:06.604Z,22.40
2022-11-05T08:59:33.291Z,20.60
2022-11-05T09:02:00.162Z,22.13
2022-11-05T09:04:26.933Z,23.80
2022-11-05T09:06:53.691Z,22.35
2022-11-05T09:09:20.384Z,22.73
2022-11-05T09:12:11.214Z,22.88
2022-11-05T09:14:33.874Z,22.50
2022-11-05T09:17:00.663Z,22.00
2022-11-05T09:19:27.535Z,24.08
2022-11-05T09:21:54.766Z,21.48
2022-11-05T09:24:21.458Z,25.92
2022-11-05T09:26:48.307Z,22.20
2022-11-05T09:29:14.992Z,21.38
2022-11-05T09:31:42.100Z,18.83
2022-11-05T09:34:08.957Z,20.42
2022-11-05T09:36:35.616Z,22.10
2022-11-05T09:39:02.644Z,22.80
2022-11-05T09:41:39.212Z,24.52
2022-11-05T09:44:15.853Z,29.23
2022-11-05T09:46:59.340Z,23.90
2022-11-05T09:49:50.316Z,22.88
2022-11-05T09:52:23.220Z,21.27
2022-11-05T09:54:50.448Z,19.90
2022-11-05T09:57:21.981Z,22.73
2022-11-05T09:59:55.687Z,21.60
2022-11-05T10:02:34.548Z,23.55
2022-11-05T10:05:09.962Z,25.55
2022-11-05T10:07:58.880Z,21.45
2022-11-05T10:10:29.059Z,25.95
2022-11-05T10:13:21.137Z,25.55
2022-11-05T10:16:15.223Z,23.13
2022-11-05T10:18:46.109Z,23.92
2022-11-05T10:21:27.970Z,24.77
2022-11-05T10:24:16.202Z,23.92
2022-11-05T10:26:46.647Z,28.00
2022-11-05T10:31:54.365Z,21.58
2022-11-05T10:34:23.518Z,22.00
2022-11-05T10:36:50.242Z,21.30
2022-11-05T10:39:19.753Z,21.90
2022-11-05T10:42:25.136Z,17.90
2022-11-05T10:45:04.678Z,16.02
2022-11-05T10:47:50.471Z,16.53
2022-11-05T10:50:20.521Z,17.10
2022-11-05T10:53:11.186Z,17.75
2022-11-05T10:55:43.471Z,16.13
2022-11-05T10:58:16.442Z,14.98
2022-11-05T11:01:07.930Z,14.48
2022-11-05T11:03:52.386Z,16.75
2022-11-05T11:06:26.643Z,15.63
2022-11-05T11:08:57.224Z,15.27
2022-11-05T11:11:31.612Z,15.32
2022-11-05T11:13:59.748Z,16.77
2022-11-05T11:16:31.107Z,18.33
2022-11-05T11:19:03.393Z,20.30
2022-11-05T11:21:32.041Z,18.40
2022-11-05T11:24:04.407Z,19.08
2022-11-05T11:26:37.218Z,19.60
2022-11-05T11:29:20.330Z,18.77
2022-11-05T11:31:47.139Z,18.60
2022-11-05T11:34:23.134Z,20.33
2022-11-05T11:36:54.436Z,20.23
2022-11-05T11:39:25.349Z,22.05
2022-11-05T11:41:55.950Z,20.65
2022-11-05T11:44:27.404Z,21.27
2022-11-05T11:46:58.466Z,21.98
2022-11-05T11:49:49.764Z,21.85
2022-11-05T11:52:25.194Z,22.35
2022-11-05T11:54:55.215Z,21.05
2022-11-05T11:57:29.350Z,22.00
2022-11-05T12:00:14.370Z,22.30
2022-11-05T12:03:14.378Z,26.95
2022-11-05T12:06:03.386Z,25.23
2022-11-05T12:08:30.063Z,29.30
2022-11-05T12:11:00.337Z,28.35
2022-11-05T12:13:35.353Z,28.15
2022-11-05T12:16:14.128Z,31.58
2022-11-05T12:19:11.289Z,30.25
2022-11-05T12:21:54.714Z,29.73
2022-11-05T12:24:36.567Z,33.42
2022-11-05T12:27:33.510Z,29.90
2022-11-05T12:30:13.710Z,31.70
2022-11-05T12:33:01.449Z,25.90
2022-11-05T12:35:44.207Z,25.08
2022-11-05T12:38:52.514Z,27.00
2022-11-05T12:41:25.121Z,26.27
2022-11-05T12:44:09.918Z,25.65
2022-11-05T12:47:07.290Z,23.77
2022-11-05T12:49:59.921Z,25.17
2022-11-05T12:52:46.871Z,22.27
2022-11-05T12:55:23.902Z,25.25
2022-11-05T12:57:54.701Z,24.92
2022-11-05T13:00:26.911Z,24.85
2022-11-05T13:03:12.853Z,25.10
2022-11-05T13:05:47.778Z,21.35
2022-11-05T13:08:46.041Z,22.00
2022-11-05T13:11:47.976Z,22.10
2022-11-05T13:14:30.840Z,21.92
2022-11-05T13:17:13.976Z,22.20
2022-11-05T13:20:06.344Z,25.88
2022-11-05T13:22:46.202Z,21.80
2022-11-05T13:25:29.212Z,22.80
2022-11-05T13:28:16.869Z,28.73
2022-11-05T13:30:51.673Z,24.63
2022-11-05T13:33:41.652Z,26.50
2022-11-05T13:36:29.917Z,23.92
2022-11-05T13:39:14.682Z,27.60
2022-11-05T13:42:03.914Z,27.85
2022-11-05T13:44:40.037Z,32.28
2022-11-05T13:47:27.905Z,28.83
2022-11-05T13:50:16.041Z,28.13
2022-11-05T13:52:48.644Z,28.00
2022-11-05T13:55:28.891Z,25.73
2022-11-05T13:58:32.298Z,28.33
2022-11-05T14:01:21.681Z,28.45
2022-11-05T14:03:51.301Z,30.15
2022-11-05T14:06:31.301Z,31.10
2022-11-05T14:09:02.462Z,32.45
2022-11-05T14:11:36.526Z,34.42
2022-11-05T14:14:07.963Z,32.22
2022-11-05T14:16:49.280Z,32.22
2022-11-05T14:19:18.869Z,34.70
2022-11-05T14:21:57.738Z,36.63
2022-11-05T14:24:38.306Z,33.45
2022-11-05T14:27:05.166Z,31.17
2022-11-05T14:29:46.341Z,30.55
2022-11-05T14:32:23.011Z,31.02
2022-11-05T14:35:03.980Z,32.13
2022-11-05T14:37:55.280Z,31.50
2022-11-05T14:40:21.957Z,30.58
2022-11-05T14:42:54.829Z,31.27
2022-11-05T14:45:38.821Z,28.95
2022-11-05T14:48:22.616Z,26.30
2022-11-05T14:50:49.865Z,26.15
2022-11-05T14:53:34.137Z,28.67
2022-11-05T14:56:13.349Z,29.67
2022-11-05T14:58:42.571Z,32.35
2022-11-05T15:01:32.049Z,33.47
2022-11-05T15:04:17.772Z,31.40
2022-11-05T15:07:04.883Z,35.35
2022-11-05T15:10:02.285Z,34.00
2022-11-05T15:12:48.866Z,24.05
2022-11-05T15:15:23.626Z,29.02
2022-11-05T15:18:12.247Z,29.50
2022-11-05T15:20:44.125Z,30.05
2022-11-05T15:23:15.527Z,30.58
2022-11-05T15:26:13.914Z,30.55
2022-11-05T15:28:47.922Z,32.88
2022-11-05T15:31:14.678Z,35.15
2022-11-05T15:33:43.211Z,35.50
2022-11-05T15:36:19.775Z,32.90
2022-11-05T15:39:08.258Z,30.60
2022-11-05T15:41:34.680Z,27.23
2022-11-05T15:44:02.755Z,30.33
2022-11-05T15:46:29.889Z,29.63
2022-11-05T15:49:14.654Z,32.55
2022-11-05T15:51:43.942Z,33.20
2022-11-05T15:54:36.060Z,29.80
2022-11-05T15:57:03.639Z,29.85
2022-11-05T15:59:30.893Z,26.98
2022-11-05T16:02:05.393Z,30.15
2022-11-05T16:04:34.777Z,26.55
2022-11-05T16:07:11.824Z,25.25
2022-11-05T16:09:43.589Z,29.50
2022-11-05T16:12:24.149Z,29.63
2022-11-05T16:15:29.471Z,30.17
2022-11-05T16:18:00.776Z,43.47
2022-11-05T16:20:33.391Z,32.60
2022-11-05T16:23:21.630Z,36.55
2022-11-05T16:25:48.602Z,40.05
2022-11-05T16:28:27.502Z,42.40
2022-11-05T16:30:54.151Z,41.75
2022-11-05T16:33:21.163Z,57.90
2022-11-05T16:35:51.299Z,60.08
2022-11-05T16:38:22.087Z,50.65
2022-11-05T16:40:48.779Z,54.47
2022-11-05T16:43:24.547Z,43.20
2022-11-05T16:45:57.151Z,37.65
2022-11-05T16:48:24.397Z,34.75
2022-11-05T16:50:51.571Z,34.90
2022-11-05T16:53:18.251Z,35.50
2022-11-05T16:55:46.210Z,35.45
2022-11-05T16:58:20.775Z,35.45
2022-11-05T17:00:52.573Z,37.28
2022-11-05T17:03:19.411Z,41.50
2022-11-05T17:05:46.543Z,41.20
2022-11-05T17:08:13.641Z,30.98
2022-11-05T17:10:40.697Z,31.13
2022-11-05T17:13:07.433Z,31.35
2022-11-05T17:15:37.334Z,29.35
2022-11-05T17:18:05.369Z,34.10
2022-11-05T17:20:40.781Z,30.35
2022-11-05T17:23:28.804Z,30.42
2022-11-05T17:26:06.647Z,36.72
2022-11-05T17:28:34.369Z,41.10
2022-11-05T17:31:02.839Z,40.58
2022-11-05T17:33:29.774Z,35.10
2022-11-05T17:35:56.954Z,41.03
2022-11-05T17:38:25.319Z,42.78
2022-11-05T17:40:52.931Z,44.60
2022-11-05T17:43:20.557Z,40.35
2022-11-05T17:45:49.904Z,40.40
2022-11-05T17:48:17.110Z,40.05
2022-11-05T17:50:46.105Z,37.22
2022-11-05T17:53:13.800Z,37.63
2022-11-05T17:55:45.874Z,41.00
2022-11-05T17:58:13.192Z,42.42
2022-11-05T18:00:41.647Z,47.33
2022-11-05T18:03:10.815Z,43.15
2022-11-05T18:05:38.253Z,42.00
2022-11-05T18:08:05.451Z,40.33
2022-11-05T18:10:33.065Z,40.40
2022-11-05T18:12:59.750Z,38.22
2022-11-05T18:15:26.461Z,34.30
2022-11-05T18:17:53.126Z,33.28
2022-11-05T18:20:19.969Z,39.75
2022-11-05T18:22:49.592Z,32.65
2022-11-05T18:25:16.623Z,33.97
2022-11-05T18:27:43.484Z,29.42
2022-11-05T18:30:13.937Z,21.55
2022-11-05T18:35:07.727Z,19.48
2022-11-05T18:37:34.468Z,18.00
2022-11-05T18:40:01.181Z,18.55
2022-11-05T18:42:27.858Z,21.08
2022-11-05T18:44:54.638Z,19.70
2022-11-05T18:47:21.309Z,17.73
2022-11-05T18:49:47.989Z,19.05
2022-11-05T18:52:14.911Z,19.60
2022-11-05T18:54:41.635Z,18.50
2022-11-05T18:57:08.609Z,16.17
2022-11-05T18:59:38.263Z,17.27
2022-11-05T19:02:07.441Z,16.90
2022-11-05T19:04:36.140Z,17.73
2022-11-05T19:07:05.571Z,18.52
2022-11-05T19:09:34.098Z,17.98
2022-11-05T19:12:01.214Z,15.45
2022-11-05T19:14:28.118Z,19.58
2022-11-05T19:16:54.827Z,18.80
2022-11-05T19:19:21.522Z,20.75
2022-11-05T19:21:48.242Z,19.05
2022-11-05T19:24:18.012Z,19.20
2022-11-05T19:26:45.016Z,20.90
2022-11-05T19:29:11.817Z,22.75
2022-11-05T19:31:38.989Z,20.52
2022-11-05T19:34:05.777Z,23.30
2022-11-05T19:36:33.826Z,21.55
2022-11-05T19:39:04.650Z,20.92
2022-11-05T19:41:31.331Z,20.13
2022-11-05T19:43:59.154Z,21.55
2022-11-05T19:46:26.106Z,20.10
2022-11-05T19:48:53.207Z,19.80
2022-11-05T19:51:23.401Z,20.02
2022-11-05T19:53:52.396Z,19.45
2022-11-05T19:56:23.544Z,21.23
2022-11-05T19:58:50.821Z,21.67
2022-11-05T20:01:18.904Z,19.73
2022-11-05T20:03:46.503Z,18.77
2022-11-05T20:06:16.259Z,21.63
2022-11-05T20:09:14.783Z,18.42
2022-11-05T20:11:31.192Z,18.88
2022-11-05T20:13:58.169Z,18.75
2022-11-05T20:16:32.247Z,18.20
2022-11-05T20:18:58.962Z,19.02
2022-11-05T20:21:26.666Z,18.45
2022-11-05T20:23:56.710Z,19.25
2022-11-05T20:26:23.466Z,19.13
2022-11-05T20:28:50.263Z,18.13
2022-11-05T20:31:18.442Z,18.73
2022-11-05T20:33:45.885Z,18.88
2022-11-05T20:36:16.420Z,17.67
2022-11-05T20:38:44.691Z,18.27
2022-11-05T20:41:14.517Z,17.52
2022-11-05T20:43:41.536Z,17.20
2022-11-05T20:46:09.394Z,17.17
2022-11-05T20:48:36.455Z,16.45
2022-11-05T20:51:08.940Z,16.17
2022-11-05T20:53:36.510Z,16.20
2022-11-05T20:56:07.808Z,17.15
2022-11-05T20:58:36.042Z,16.67
2022-11-05T21:01:04.088Z,17.92
2022-11-05T21:03:31.222Z,17.27
2022-11-05T21:06:00.687Z,16.05
2022-11-05T21:08:28.285Z,17.10
2022-11-05T21:10:56.379Z,17.38
2022-11-05T21:13:23.765Z,18.15
2022-11-05T21:15:53.673Z,18.33
2022-11-05T21:18:23.544Z,17.42
2022-11-05T21:20:50.772Z,17.63
2022-11-05T21:23:18.306Z,17.35
2022-11-05T21:25:45.820Z,17.10
2022-11-05T21:28:13.872Z,16.70
2022-11-05T21:30:44.946Z,16.20
2022-11-05T21:33:12.897Z,17.40
2022-11-05T21:35:45.055Z,17.10
2022-11-05T21:38:14.548Z,17.75
2022-11-05T21:40:41.734Z,16.08
2022-11-05T21:43:09.172Z,18.17
2022-11-05T21:45:41.137Z,18.33
2022-11-05T21:48:08.725Z,18.10
2022-11-05T21:50:57.005Z,19.08
2022-11-05T21:53:42.659Z,20.20
2022-11-05T21:56:40.576Z,23.70
2022-11-05T21:59:28.703Z,23.42
2022-11-05T22:02:01.357Z,26.70
2022-11-05T22:04:35.492Z,25.63
2022-11-05T22:07:03.989Z,25.20
2022-11-05T22:09:31.254Z,23.25
2022-11-05T22:11:58.048Z,22.65
2022-11-05T22:14:25.032Z,30.77
2022-11-05T22:16:52.108Z,22.15
2022-11-05T22:19:21.002Z,21.80
2022-11-05T22:21:48.071Z,19.88
2022-11-05T22:24:15.139Z,18.95
2022-11-05T22:26:42.914Z,17.23
2022-11-05T22:29:10.127Z,18.52
2022-11-05T22:31:37.017Z,18.73
2022-11-05T22:34:05.270Z,18.60
2022-11-05T22:36:35.495Z,19.70
2022-11-05T22:39:03.023Z,17.55
2022-11-05T22:41:29.868Z,18.80
2022-11-05T22:43:57.376Z,19.73
2022-11-05T22:46:26.660Z,18.05
2022-11-05T22:48:54.054Z,17.85
2022-11-05T22:51:23.661Z,19.27
2022-11-05T22:53:51.056Z,17.70
2022-11-05T22:56:20.607Z,18.13
2022-11-05T22:58:48.134Z,19.47
2022-11-05T23:01:16.016Z,18.23
2022-11-05T23:03:45.061Z,19.60
2022-11-05T23:06:37.543Z,19.45
2022-11-05T23:09:33.318Z,20.48
2022-11-05T23:12:00.834Z,20.92
2022-11-05T23:14:27.923Z,20.92
2022-11-05T23:17:13.149Z,21.70
2022-11-05T23:20:18.880Z,20.65
2022-11-05T23:23:04.402Z,18.77
2022-11-05T23:25:31.206Z,19.38
2022-11-05T23:27:57.914Z,19.83
2022-11-05T23:30:26.710Z,19.00
2022-11-05T23:32:53.685Z,20.38
2022-11-05T23:35:43.227Z,18.77
2022-11-05T23:38:28.851Z,19.05
2022-11-05T23:41:21.631Z,19.60
2022-11-05T23:44:07.122Z,19.13
2022-11-05T23:46:52.569Z,18.13
2022-11-05T23:49:19.436Z,18.10
2022-11-05T23:51:46.584Z,17.70
2022-11-05T23:54:13.480Z,19.88
2022-11-05T23:56:40.274Z,19.20
2022-11-05T23:59:07.402Z,19.27
